createdAt,value
2022-08-11T00:02:00.298Z,74.85
2022-08-11T00:04:37.191Z,75.04
2022-08-11T00:07:06.194Z,75.12
2022-08-11T00:09:38.841Z,75.54
2022-08-11T00:12:15.171Z,75.55
2022-08-11T00:14:44.462Z,75.68
2022-08-11T00:17:14.237Z,75.91
2022-08-11T00:20:14.274Z,75.81
2022-08-11T00:22:33.590Z,75.64
2022-08-11T00:25:11.535Z,75.69
2022-08-11T00:27:39.992Z,75.97
2022-08-11T00:30:11.670Z,76.05
2022-08-11T00:32:40.854Z,76.34
2022-08-11T00:35:54.470Z,76.36
2022-08-11T00:38:01.072Z,76.67
2022-08-11T00:40:44.506Z,76.84
2022-08-11T00:43:22.254Z,76.89
2022-08-11T00:46:12.324Z,76.89
2022-08-11T00:48:45.178Z,76.73
2022-08-11T00:51:25.678Z,77.05
2022-08-11T00:54:25.240Z,76.89
2022-08-11T00:57:36.791Z,77.23
2022-08-11T01:00:16.494Z,77.40
2022-08-11T01:03:13.018Z,77.63
2022-08-11T01:06:05.384Z,77.77
2022-08-11T01:09:21.007Z,77.63
2022-08-11T01:12:09.593Z,77.99
2022-08-11T01:14:48.248Z,78.43
2022-08-11T01:17:35.736Z,78.43
2022-08-11T01:20:46.720Z,78.15
2022-08-11T01:23:37.859Z,77.67
2022-08-11T01:26:41.415Z,77.75
2022-08-11T01:29:33.497Z,77.77
2022-08-11T01:32:29.370Z,78.14
2022-08-11T01:35:11.295Z,78.09
2022-08-11T01:37:59.184Z,77.89
2022-08-11T01:40:26.026Z,77.89
2022-08-11T01:43:27.928Z,78.03
2022-08-11T01:46:28.188Z,78.47
2022-08-11T01:50:08.488Z,78.73
2022-08-11T01:52:45.076Z,78.68
2022-08-11T01:55:18.202Z,79.11
2022-08-11T01:57:55.015Z,79.32
2022-08-11T02:00:28.998Z,79.52
2022-08-11T02:03:40.585Z,79.22
2022-08-11T02:06:41.349Z,78.43
2022-08-11T02:09:51.768Z,78.17
2022-08-11T02:12:52.225Z,78.12
2022-08-11T02:15:34.434Z,78.24
2022-08-11T02:18:13.586Z,78.56
2022-08-11T02:21:16.074Z,78.82
2022-08-11T02:24:13.414Z,78.97
2022-08-11T02:27:07.472Z,79.11
2022-08-11T02:29:47.926Z,78.98
2022-08-11T02:32:39.442Z,79.11
2022-08-11T02:35:12.068Z,79.31
2022-08-11T02:38:14.446Z,79.80
2022-08-11T02:41:02.732Z,80.01
2022-08-11T02:43:41.711Z,79.95
2022-08-11T02:46:27.528Z,80.14
2022-08-11T02:49:37.143Z,79.75
2022-08-11T02:52:15.731Z,80.35
2022-08-11T02:55:02.451Z,80.30
2022-08-11T02:57:47.416Z,80.41
2022-08-11T03:00:16.307Z,80.73
2022-08-11T03:03:12.445Z,80.72
2022-08-11T03:05:53.103Z,80.96
2022-08-11T03:08:36.434Z,80.99
2022-08-11T03:11:30.797Z,80.91
2022-08-11T03:14:34.654Z,80.93
2022-08-11T03:17:20.021Z,80.73
2022-08-11T03:19:55.284Z,80.81
2022-08-11T03:22:25.315Z,80.65
2022-08-11T03:25:38.178Z,80.85
2022-08-11T03:28:21.112Z,81.15
2022-08-11T03:31:15.851Z,81.13
2022-08-11T03:34:06.756Z,81.12
2022-08-11T03:36:34.131Z,81.16
2022-08-11T03:39:51.104Z,81.26
2022-08-11T03:42:29.796Z,81.10
2022-08-11T03:45:06.446Z,80.14
2022-08-11T03:47:58.787Z,80.70
2022-08-11T03:50:50.715Z,80.79
2022-08-11T03:53:45.430Z,80.85
2022-08-11T03:56:39.764Z,80.94
2022-08-11T03:59:50.253Z,80.59
2022-08-11T04:02:44.194Z,80.89
2022-08-11T04:05:45.037Z,80.80
2022-08-11T04:08:34.361Z,80.84
2022-08-11T04:11:19.746Z,81.18
2022-08-11T04:14:37.020Z,81.31
2022-08-11T04:17:42.504Z,81.33
2022-08-11T04:20:36.941Z,81.18
2022-08-11T04:24:36.438Z,81.54
2022-08-11T04:26:50.025Z,81.40
2022-08-11T04:29:25.790Z,81.39
2022-08-11T04:32:33.989Z,81.12
2022-08-11T04:35:24.112Z,81.47
2022-08-11T04:37:53.586Z,81.10
2022-08-11T04:40:39.148Z,80.75
2022-08-11T04:43:27.509Z,80.50
2022-08-11T04:46:09.507Z,80.80
2022-08-11T04:48:54.923Z,81.49
2022-08-11T04:52:37.714Z,79.60
2022-08-11T04:55:51.517Z,77.17
2022-08-11T04:59:15.432Z,75.92
2022-08-11T05:02:19.773Z,74.72
2022-08-11T05:05:31.307Z,73.41
2022-08-11T05:08:27.252Z,72.44
2022-08-11T05:11:22.666Z,72.78
2022-08-11T05:14:11.026Z,72.12
2022-08-11T05:17:06.831Z,71.64
2022-08-11T05:19:52.145Z,72.08
2022-08-11T05:22:38.729Z,72.03
2022-08-11T05:26:45.270Z,72.15
2022-08-11T05:28:49.967Z,73.06
2022-08-11T05:31:57.627Z,73.35
2022-08-11T05:34:51.068Z,72.46
2022-08-11T05:37:34.520Z,71.77
2022-08-11T05:40:26.185Z,71.30
2022-08-11T05:43:21.061Z,70.81
2022-08-11T05:46:21.351Z,69.34
2022-08-11T05:49:08.273Z,67.56
2022-08-11T05:51:55.783Z,67.21
2022-08-11T05:54:50.998Z,69.41
2022-08-11T05:57:50.716Z,66.31
2022-08-11T06:00:20.189Z,62.13
2022-08-11T06:02:55.363Z,58.99
2022-08-11T06:05:22.876Z,57.63
2022-08-11T06:07:57.054Z,56.68
2022-08-11T06:10:33.533Z,55.76
2022-08-11T06:13:01.679Z,54.16
2022-08-11T06:15:31.099Z,53.33
2022-08-11T06:18:01.176Z,53.70
2022-08-11T06:20:32.832Z,52.94
2022-08-11T06:23:03.877Z,53.39
2022-08-11T06:25:35.670Z,53.40
2022-08-11T06:28:07.463Z,52.61
2022-08-11T06:30:44.018Z,52.93
2022-08-11T06:33:18.100Z,50.04
2022-08-11T06:35:48.236Z,47.63
2022-08-11T06:38:36.809Z,45.84
2022-08-11T06:41:31.838Z,43.92
2022-08-11T06:44:13.837Z,42.64
2022-08-11T06:46:43.523Z,45.43
2022-08-11T06:49:31.449Z,44.01
2022-08-11T06:52:35.872Z,44.22
2022-08-11T06:55:08.087Z,45.05
2022-08-11T06:57:57.874Z,44.67
2022-08-11T07:00:28.939Z,42.32
2022-08-11T07:03:28.628Z,42.49
2022-08-11T07:06:20.664Z,41.23
2022-08-11T07:09:51.678Z,41.68
2022-08-11T07:12:49.218Z,43.84
2022-08-11T07:16:10.781Z,41.13
2022-08-11T07:18:45.343Z,42.61
2022-08-11T07:22:01.477Z,42.03
2022-08-11T07:24:59.655Z,42.31
2022-08-11T07:27:56.204Z,41.58
2022-08-11T07:30:26.329Z,40.65
2022-08-11T07:32:55.875Z,40.94
2022-08-11T07:35:32.008Z,42.42
2022-08-11T07:38:07.280Z,43.84
2022-08-11T07:40:35.845Z,42.15
2022-08-11T07:43:04.452Z,40.81
2022-08-11T07:45:50.933Z,40.75
2022-08-11T07:48:36.718Z,42.09
2022-08-11T07:51:22.670Z,42.59
2022-08-11T07:53:58.814Z,42.64
2022-08-11T07:57:07.578Z,42.59
2022-08-11T08:00:04.258Z,38.73
2022-08-11T08:02:49.905Z,40.17
2022-08-11T08:05:37.201Z,40.55
2022-08-11T08:08:23.422Z,40.53
2022-08-11T08:11:09.353Z,40.40
2022-08-11T08:13:56.185Z,38.46
2022-08-11T08:16:43.019Z,39.46
2022-08-11T08:19:14.914Z,39.39
2022-08-11T08:21:45.461Z,38.80
2022-08-11T08:24:13.914Z,37.63
2022-08-11T08:26:59.805Z,37.00
2022-08-11T08:29:53.294Z,37.69
2022-08-11T08:32:21.792Z,37.21
2022-08-11T08:34:55.181Z,37.54
2022-08-11T08:37:46.282Z,37.11
2022-08-11T08:40:11.357Z,35.49
2022-08-11T08:42:51.838Z,35.89
2022-08-11T08:45:19.582Z,35.74
2022-08-11T08:48:11.107Z,33.79
2022-08-11T08:51:03.421Z,34.31
2022-08-11T08:53:35.616Z,34.30
2022-08-11T08:56:03.849Z,35.57
2022-08-11T08:58:33.407Z,34.10
2022-08-11T09:01:01.248Z,33.15
2022-08-11T09:04:05.151Z,36.30
2022-08-11T09:06:17.164Z,35.63
2022-08-11T09:08:45.655Z,33.76
2022-08-11T09:11:33.050Z,33.92
2022-08-11T09:14:05.970Z,31.99
2022-08-11T09:16:36.751Z,30.40
2022-08-11T09:19:04.565Z,30.61
2022-08-11T09:21:46.368Z,30.30
2022-08-11T09:24:37.042Z,29.74
2022-08-11T09:27:08.400Z,28.21
2022-08-11T09:29:37.769Z,28.33
2022-08-11T09:32:07.084Z,28.73
2022-08-11T09:34:37.094Z,28.48
2022-08-11T09:37:53.601Z,26.57
2022-08-11T09:40:29.573Z,27.15
2022-08-11T09:43:22.128Z,27.14
2022-08-11T09:45:51.954Z,26.33
2022-08-11T09:48:21.258Z,27.56
2022-08-11T09:50:50.889Z,24.57
2022-08-11T09:53:36.827Z,26.20
2022-08-11T09:56:29.665Z,25.84
2022-08-11T09:58:57.496Z,24.79
2022-08-11T10:01:32.130Z,24.65
2022-08-11T10:04:15.447Z,26.19
2022-08-11T10:07:04.345Z,26.01
2022-08-11T10:09:44.200Z,25.56
2022-08-11T10:12:14.715Z,25.41
2022-08-11T10:15:03.792Z,26.60
2022-08-11T10:17:34.242Z,27.61
2022-08-11T10:20:05.933Z,26.68
2022-08-11T10:22:53.625Z,27.51
2022-08-11T10:25:39.917Z,28.43
2022-08-11T10:28:33.014Z,28.08
2022-08-11T10:31:17.448Z,27.78
2022-08-11T10:34:00.425Z,28.90
2022-08-11T10:36:35.852Z,29.18
2022-08-11T10:39:05.572Z,30.54
2022-08-11T10:42:06.669Z,29.01
2022-08-11T10:44:45.701Z,29.11
2022-08-11T10:47:34.214Z,29.58
2022-08-11T10:50:27.203Z,29.80
2022-08-11T10:53:13.705Z,30.01
2022-08-11T10:56:02.193Z,30.76
2022-08-11T10:58:47.971Z,29.87
2022-08-11T11:01:17.592Z,29.77
2022-08-11T11:03:45.759Z,28.97
2022-08-11T11:06:29.956Z,29.45
2022-08-11T11:09:04.941Z,29.48
2022-08-11T11:11:55.744Z,29.68
2022-08-11T11:14:49.881Z,29.13
2022-08-11T11:17:54.211Z,30.25
2022-08-11T11:20:34.723Z,30.36
2022-08-11T11:23:21.557Z,31.14
2022-08-11T11:26:14.618Z,30.99
2022-08-11T11:29:06.530Z,30.01
2022-08-11T11:32:16.036Z,29.68
2022-08-11T11:34:59.375Z,28.90
2022-08-11T11:37:29.295Z,29.58
2022-08-11T11:39:57.783Z,28.52
2022-08-11T11:42:25.268Z,29.33
2022-08-11T11:44:55.876Z,30.04
2022-08-11T11:47:24.150Z,30.98
2022-08-11T11:49:51.305Z,29.55
2022-08-11T11:52:20.996Z,31.74
2022-08-11T11:54:50.936Z,31.09
2022-08-11T11:57:39.036Z,29.33
2022-08-11T12:00:32.936Z,29.26
2022-08-11T12:03:06.098Z,29.72
2022-08-11T12:05:36.238Z,29.84
2022-08-11T12:08:17.349Z,28.85
2022-08-11T12:10:50.677Z,28.91
2022-08-11T12:13:37.574Z,29.55
2022-08-11T12:16:33.991Z,29.61
2022-08-11T12:18:54.595Z,29.26
2022-08-11T12:21:22.942Z,28.42
2022-08-11T12:24:09.410Z,28.49
2022-08-11T12:27:15.076Z,29.91
2022-08-11T12:29:41.255Z,28.81
2022-08-11T12:32:12.642Z,29.52
2022-08-11T12:34:39.462Z,30.58
2022-08-11T12:37:12.994Z,30.02
2022-08-11T12:40:16.343Z,29.98
2022-08-11T12:43:21.707Z,29.78
2022-08-11T12:45:58.621Z,29.84
2022-08-11T12:48:59.078Z,30.55
2022-08-11T12:52:11.442Z,30.36
2022-08-11T12:54:52.368Z,30.19
2022-08-11T12:57:52.147Z,30.50
2022-08-11T13:00:38.504Z,29.42
2022-08-11T13:03:26.980Z,30.75
2022-08-11T13:05:56.858Z,29.70
2022-08-11T13:08:25.489Z,29.88
2022-08-11T13:11:13.310Z,30.01
2022-08-11T13:13:54.701Z,29.71
2022-08-11T13:16:52.865Z,29.84
2022-08-11T13:19:21.648Z,30.30
2022-08-11T13:21:50.477Z,29.34
2022-08-11T13:24:18.544Z,30.40
2022-08-11T13:26:50.020Z,31.05
2022-08-11T13:29:25.222Z,30.15
2022-08-11T13:32:00.783Z,29.93
2022-08-11T13:34:31.279Z,29.63
2022-08-11T13:37:02.067Z,30.19
2022-08-11T13:39:31.487Z,30.00
2022-08-11T13:42:00.287Z,30.25
2022-08-11T13:44:30.331Z,29.98
2022-08-11T13:46:59.315Z,30.30
2022-08-11T13:49:27.614Z,29.55
2022-08-11T13:51:55.895Z,30.26
2022-08-11T13:54:30.174Z,30.51
2022-08-11T13:57:00.916Z,30.11
2022-08-11T13:59:29.912Z,30.61
2022-08-11T14:02:21.416Z,30.73
2022-08-11T14:04:57.401Z,29.52
2022-08-11T14:07:27.666Z,29.93
2022-08-11T14:09:59.407Z,30.34
2022-08-11T14:12:53.509Z,30.14
2022-08-11T14:15:25.113Z,29.53
2022-08-11T14:17:57.201Z,30.59
2022-08-11T14:20:39.836Z,29.39
2022-08-11T14:23:12.515Z,30.34
2022-08-11T14:26:02.305Z,30.98
2022-08-11T14:28:39.999Z,31.45
2022-08-11T14:31:09.425Z,29.96
2022-08-11T14:34:00.575Z,30.90
2022-08-11T14:36:26.829Z,29.83
2022-08-11T14:38:54.671Z,30.47
2022-08-11T14:42:11.465Z,30.93
2022-08-11T14:44:50.128Z,31.60
2022-08-11T14:47:23.919Z,31.57
2022-08-11T14:50:02.539Z,31.80
2022-08-11T14:52:43.341Z,30.77
2022-08-11T14:55:30.474Z,31.76
2022-08-11T14:57:57.660Z,32.02
2022-08-11T15:00:25.400Z,30.71
2022-08-11T15:03:10.356Z,30.80
2022-08-11T15:06:06.775Z,31.44
2022-08-11T15:08:57.027Z,31.33
2022-08-11T15:11:47.596Z,31.51
2022-08-11T15:14:36.195Z,32.00
2022-08-11T15:17:10.518Z,31.44
2022-08-11T15:20:00.791Z,31.38
2022-08-11T15:22:47.317Z,31.18
2022-08-11T15:25:14.634Z,32.55
2022-08-11T15:28:04.877Z,31.10
2022-08-11T15:30:53.227Z,30.48
2022-08-11T15:33:40.307Z,31.18
2022-08-11T15:36:29.171Z,30.86
2022-08-11T15:39:05.203Z,29.56
2022-08-11T15:42:09.529Z,29.74
2022-08-11T15:45:02.532Z,30.38
2022-08-11T15:47:39.133Z,27.58
2022-08-11T15:50:20.863Z,28.75
2022-08-11T15:53:00.987Z,29.08
2022-08-11T15:55:30.937Z,29.36
2022-08-11T15:58:20.140Z,29.06
2022-08-11T16:01:08.913Z,29.58
2022-08-11T16:04:13.297Z,29.32
2022-08-11T16:07:04.808Z,30.17
2022-08-11T16:09:51.961Z,29.39
2022-08-11T16:12:26.988Z,29.80
2022-08-11T16:15:20.157Z,30.15
2022-08-11T16:17:51.528Z,30.49
2022-08-11T16:20:22.476Z,31.28
2022-08-11T16:22:55.308Z,31.06
2022-08-11T16:27:03.405Z,32.10
2022-08-11T16:28:18.872Z,32.49
2022-08-11T16:30:46.709Z,31.43
2022-08-11T16:33:50.762Z,33.52
2022-08-11T16:36:23.030Z,32.64
2022-08-11T16:38:50.917Z,34.23
2022-08-11T16:41:41.394Z,34.16
2022-08-11T16:44:37.017Z,35.90
2022-08-11T16:47:08.463Z,36.11
2022-08-11T16:49:43.606Z,36.40
2022-08-11T16:52:20.654Z,36.21
2022-08-11T16:54:50.544Z,36.92
2022-08-11T16:57:47.496Z,37.11
2022-08-11T17:00:17.831Z,37.30
2022-08-11T17:03:11.588Z,37.89
2022-08-11T17:06:10.120Z,37.02
2022-08-11T17:09:10.501Z,37.60
2022-08-11T17:12:14.928Z,37.58
2022-08-11T17:14:49.778Z,37.52
2022-08-11T17:17:38.585Z,37.40
2022-08-11T17:20:40.138Z,38.27
2022-08-11T17:23:18.850Z,34.18
2022-08-11T17:25:59.150Z,34.60
2022-08-11T17:28:32.068Z,33.75
2022-08-11T17:31:22.133Z,33.73
2022-08-11T17:34:10.367Z,35.46
2022-08-11T17:36:40.432Z,34.14
2022-08-11T17:39:13.269Z,34.86
2022-08-11T17:42:00.224Z,35.03
2022-08-11T17:44:46.974Z,35.34
2022-08-11T17:47:33.909Z,34.61
2022-08-11T17:50:17.355Z,34.57
2022-08-11T17:53:05.868Z,34.18
2022-08-11T17:55:53.836Z,34.20
2022-08-11T17:58:40.036Z,34.39
2022-08-11T18:01:10.986Z,34.47
2022-08-11T18:03:40.907Z,34.16
2022-08-11T18:06:12.833Z,34.35
2022-08-11T18:09:04.121Z,34.70
2022-08-11T18:12:10.285Z,34.66
2022-08-11T18:14:59.005Z,34.49
2022-08-11T18:17:45.039Z,34.73
2022-08-11T18:20:30.479Z,34.76
2022-08-11T18:23:19.666Z,35.25
2022-08-11T18:26:07.667Z,35.96
2022-08-11T18:29:03.741Z,36.13
2022-08-11T18:31:52.636Z,36.50
2022-08-11T18:34:45.111Z,36.40
2022-08-11T18:37:47.835Z,36.34
2022-08-11T18:40:38.009Z,36.15
2022-08-11T18:43:28.795Z,36.11
2022-08-11T18:46:23.435Z,35.98
2022-08-11T18:49:15.499Z,35.99
2022-08-11T18:52:06.564Z,35.64
2022-08-11T18:54:56.051Z,36.27
2022-08-11T18:57:50.104Z,36.02
2022-08-11T19:00:42.278Z,36.63
2022-08-11T19:03:31.273Z,36.86
2022-08-11T19:06:39.724Z,37.83
2022-08-11T19:09:29.098Z,39.38
2022-08-11T19:12:15.545Z,37.64
2022-08-11T19:15:03.405Z,39.94
2022-08-11T19:17:51.653Z,39.37
2022-08-11T19:20:41.279Z,38.77
2022-08-11T19:23:29.705Z,41.16
2022-08-11T19:26:17.983Z,40.00
2022-08-11T19:29:06.275Z,41.13
2022-08-11T19:31:52.903Z,41.13
2022-08-11T19:34:40.708Z,40.49
2022-08-11T19:37:27.659Z,41.80
2022-08-11T19:40:18.027Z,41.68
2022-08-11T19:43:14.842Z,41.87
2022-08-11T19:46:12.476Z,43.16
2022-08-11T19:48:59.046Z,42.55
2022-08-11T19:51:46.029Z,42.72
2022-08-11T19:54:32.026Z,43.77
2022-08-11T19:57:19.264Z,43.74
2022-08-11T20:00:05.132Z,42.36
2022-08-11T20:02:50.472Z,42.58
2022-08-11T20:05:36.004Z,41.36
2022-08-11T20:08:22.863Z,42.77
2022-08-11T20:11:09.605Z,41.63
2022-08-11T20:13:57.912Z,42.87
2022-08-11T20:16:45.672Z,44.89
2022-08-11T20:19:55.539Z,43.71
2022-08-11T20:22:38.363Z,42.63
2022-08-11T20:25:25.443Z,42.23
2022-08-11T20:28:12.395Z,42.50
2022-08-11T20:30:58.873Z,42.55
2022-08-11T20:33:44.019Z,44.00
2022-08-11T20:36:32.292Z,43.40
2022-08-11T20:39:19.817Z,44.32
2022-08-11T20:42:07.353Z,44.29
2022-08-11T20:44:55.618Z,45.38
2022-08-11T20:47:58.985Z,45.33
2022-08-11T20:50:46.383Z,45.51
2022-08-11T20:53:39.194Z,46.61
2022-08-11T20:56:28.223Z,46.80
2022-08-11T20:59:23.145Z,47.00
2022-08-11T21:02:10.587Z,48.00
2022-08-11T21:05:00.116Z,48.66
2022-08-11T21:07:59.279Z,48.09
2022-08-11T21:10:50.526Z,49.25
2022-08-11T21:13:39.389Z,47.96
2022-08-11T21:16:27.393Z,48.73
2022-08-11T21:20:01.200Z,49.15
2022-08-11T21:22:59.064Z,49.57
2022-08-11T21:25:55.638Z,50.11
2022-08-11T21:28:47.221Z,50.59
2022-08-11T21:31:34.243Z,51.01
2022-08-11T21:34:21.701Z,53.07
2022-08-11T21:37:08.789Z,54.43
2022-08-11T21:39:55.024Z,54.75
2022-08-11T21:42:41.477Z,54.75
2022-08-11T21:45:29.040Z,54.81
2022-08-11T21:48:16.062Z,54.91
2022-08-11T21:51:01.235Z,55.61
2022-08-11T21:53:47.890Z,56.04
2022-08-11T21:56:34.006Z,57.30
2022-08-11T21:59:20.412Z,57.25
2022-08-11T22:02:12.592Z,57.64
2022-08-11T22:05:00.151Z,57.90
2022-08-11T22:07:46.515Z,57.87
2022-08-11T22:10:41.972Z,58.00
2022-08-11T22:13:32.303Z,58.41
2022-08-11T22:16:18.737Z,59.22
2022-08-11T22:19:09.706Z,59.15
2022-08-11T22:22:03.549Z,59.50
2022-08-11T22:24:53.355Z,59.51
2022-08-11T22:27:40.388Z,60.17
2022-08-11T22:30:27.287Z,60.73
2022-08-11T22:33:15.027Z,61.03
2022-08-11T22:36:02.002Z,61.38
2022-08-11T22:38:49.341Z,61.75
2022-08-11T22:41:35.142Z,62.28
2022-08-11T22:44:20.957Z,62.73
2022-08-11T22:47:09.371Z,63.01
2022-08-11T22:49:58.675Z,63.76
2022-08-11T22:52:47.090Z,64.71
2022-08-11T22:55:34.056Z,64.77
2022-08-11T22:58:21.238Z,65.37
2022-08-11T23:01:08.152Z,65.62
2022-08-11T23:03:54.659Z,65.88
2022-08-11T23:06:41.459Z,66.04
2022-08-11T23:09:27.937Z,66.21
2022-08-11T23:12:13.691Z,66.49
2022-08-11T23:15:00.400Z,67.14
2022-08-11T23:17:47.380Z,67.86
2022-08-11T23:20:48.009Z,68.07
2022-08-11T23:23:36.209Z,69.21
2022-08-11T23:26:22.542Z,69.03
2022-08-11T23:29:07.938Z,69.18
2022-08-11T23:31:56.161Z,69.78
2022-08-11T23:35:37.015Z,70.80
2022-08-11T23:37:53.716Z,70.71
2022-08-11T23:40:39.068Z,70.48
2022-08-11T23:43:25.725Z,71.40
2022-08-11T23:46:10.946Z,71.63
2022-08-11T23:48:57.794Z,72.03
2022-08-11T23:51:44.176Z,71.97
2022-08-11T23:54:36.476Z,72.22
2022-08-11T23:57:23.602Z,73.03
